EHBK Airport Information

Runway Information
Runway 03 Length 8202 ft width 148 ft
Elevation 365 ft Threshold 820 ft Heading 33
Runway 21 Length 8202 ft Width 148 ft
Elevation 370 ft Threshold 820 ft Heading 213
Airport Frequencies
Type APP Name BEEK APP Frequency 120.2 MHZ
Type ATIS Name ATIS Frequency 124.575 MHZ
Type GND Name BEEK GND Frequency 121.825 MHZ
Type TWR Name BEEK TWR Frequency 119.475 MHZ
Airport Navaids
Type VOR-DME Name Maastricht Frequency 108600 KHZ
Type NDB Name Maastricht Frequency 373 KHZ
Airport Weather Information & NOTAM
ADDS - METARS form results

(1308 UTC 22 June 2018)
 
METAR text: EHBK 221255Z AUTO 31010KT 250V350 9999 FEW033 BKN039 OVC044 15/07 Q1027 NOSIG
Conditions at: EHBK (ZUID-LIMBURG/BEE, NL) observed 1255 UTC 22 June 2018
Temperature: 15.0°C (59°F)
Dewpoint: 7.0°C (45°F) [RH = 59%]
Pressure (altimeter): 30.32 inches Hg (1027.0 mb)
Winds: from the NW (310 degrees) at 12 MPH (10 knots; 5.2 m/s)
Visibility: 6 or more miles (10+ km)
Ceiling: 3900 feet AGL
Clouds: few clouds at 3300 feet AGL
broken clouds at 3900 feet AGL
overcast cloud deck at 4400 feet AGL
Weather: no significant weather observed at this time

METAR text: EHBK 221225Z AUTO 33010KT 270V360 9999 BKN034 OVC039 15/07 Q1027 NOSIG
Conditions at: EHBK (ZUID-LIMBURG/BEE, NL) observed 1225 UTC 22 June 2018
Temperature: 15.0°C (59°F)
Dewpoint: 7.0°C (45°F) [RH = 59%]
Pressure (altimeter): 30.32 inches Hg (1027.0 mb)
Winds: from the NNW (330 degrees) at 12 MPH (10 knots; 5.2 m/s)
Visibility: 6 or more miles (10+ km)
Ceiling: 3400 feet AGL
Clouds: broken clouds at 3400 feet AGL
overcast cloud deck at 3900 feet AGL
Weather: no significant weather observed at this time